Time;durP1;ratioP1;P1;durP2;ratioP2;P2;SDS_P1;SDS_P2;PMS_P1;PMS_P2;Temp;Humidity;BMP_temperature;BMP_pressure;BME280_temperature;BME280_humidity;BME280_pressure;Samples;Min_cycle;Max_cycle;Signal;HPM_P1;HPM_P2
2023/06/01 00:01:41;;;;;;;14.43;5.82;;;12.70;99.90;;;;;;4941576;29;20187;-79
2023/06/01 00:04:09;;;;;;;15.60;6.40;;;12.70;99.90;;;;;;4939375;29;20191;-79
2023/06/01 00:06:35;;;;;;;17.63;6.32;;;12.70;99.90;;;;;;4936135;29;20193;-79
2023/06/01 00:09:02;;;;;;;18.65;6.18;;;12.70;99.90;;;;;;4952759;29;20269;-79
2023/06/01 00:11:29;;;;;;;13.02;5.70;;;12.70;99.90;;;;;;4935810;29;20595;-79
2023/06/01 00:13:55;;;;;;;16.52;6.60;;;12.70;99.90;;;;;;4935514;29;20237;-79
2023/06/01 00:16:22;;;;;;;18.15;6.47;;;12.60;99.90;;;;;;4935599;29;20245;-80
2023/06/01 00:18:48;;;;;;;17.88;5.82;;;12.60;99.90;;;;;;4932865;29;20195;-81
2023/06/01 00:21:14;;;;;;;15.98;6.25;;;12.60;99.90;;;;;;4920114;29;20582;-79
2023/06/01 00:23:40;;;;;;;20.48;6.38;;;12.60;99.90;;;;;;4920489;29;20187;-79
2023/06/01 00:26:07;;;;;;;18.63;6.60;;;12.60;99.90;;;;;;4936142;29;20381;-80
2023/06/01 00:28:34;;;;;;;17.60;6.40;;;12.60;99.90;;;;;;4952834;29;20175;-79
2023/06/01 00:31:00;;;;;;;15.07;5.82;;;12.60;99.90;;;;;;4929210;29;20273;-79
2023/06/01 00:33:26;;;;;;;19.75;7.00;;;12.60;99.90;;;;;;4939525;29;20277;-79
2023/06/01 00:35:52;;;;;;;17.50;6.03;;;12.60;99.90;;;;;;4939828;29;20277;-79
2023/06/01 00:38:19;;;;;;;16.00;6.13;;;12.60;99.90;;;;;;4955204;29;20261;-79
2023/06/01 00:40:49;;;;;;;16.60;6.40;;;12.50;99.90;;;;;;4945169;29;20278;-79
2023/06/01 00:43:19;;;;;;;18.55;6.22;;;12.50;99.90;;;;;;4940724;29;20194;-80
2023/06/01 00:45:45;;;;;;;15.38;6.35;;;12.50;99.90;;;;;;4939219;29;20179;-80
2023/06/01 00:48:15;;;;;;;16.40;6.40;;;12.50;99.90;;;;;;4938987;29;20178;-80
2023/06/01 00:50:41;;;;;;;15.57;6.28;;;12.50;99.90;;;;;;4947575;29;20286;-79
2023/06/01 00:53:16;;;;;;;21.27;6.45;;;12.50;99.90;;;;;;4951798;29;20370;-79
2023/06/01 00:55:42;;;;;;;17.95;5.90;;;12.50;99.90;;;;;;4951968;29;20177;-78
2023/06/01 00:58:08;;;;;;;20.67;6.38;;;12.50;99.90;;;;;;4938442;29;20186;-79
2023/06/01 01:00:34;;;;;;;14.35;6.20;;;12.50;99.90;;;;;;4956164;29;20174;-79
2023/06/01 01:03:06;;;;;;;15.05;6.20;;;12.40;99.90;;;;;;4924866;28;20198;-79
2023/06/01 01:05:33;;;;;;;16.63;7.00;;;12.50;99.90;;;;;;4957922;28;20625;-79
2023/06/01 01:08:27;;;;;;;14.32;6.07;;;12.50;99.90;;;;;;4938739;29;20198;-80
2023/06/01 01:11:05;;;;;;;19.90;6.97;;;12.50;99.90;;;;;;4938618;29;20621;-79
2023/06/01 01:13:52;;;;;;;20.17;6.93;;;12.50;99.90;;;;;;4929274;29;20423;-80
2023/06/01 01:16:46;;;;;;;14.98;6.90;;;12.50;99.90;;;;;;4943515;29;20183;-79
2023/06/01 01:19:27;;;;;;;13.95;6.88;;;12.50;99.90;;;;;;4938603;29;20672;-80
2023/06/01 01:22:20;;;;;;;20.85;7.38;;;12.50;99.90;;;;;;4971087;28;20613;-78
2023/06/01 01:25:18;;;;;;;14.85;7.10;;;12.50;99.90;;;;;;4957911;28;20190;-80
2023/06/01 01:27:55;;;;;;;14.55;6.88;;;12.50;99.90;;;;;;4882135;29;20217;-80
2023/06/01 01:30:27;;;;;;;14.85;7.05;;;12.50;99.90;;;;;;4955709;29;20213;-79
2023/06/01 01:32:57;;;;;;;14.07;6.90;;;12.50;99.90;;;;;;4939343;29;20211;-80
2023/06/01 01:35:25;;;;;;;18.02;6.97;;;12.50;99.90;;;;;;4923051;29;20506;-78
2023/06/01 01:37:52;;;;;;;16.15;6.40;;;12.50;99.90;;;;;;4932567;29;20617;-79
2023/06/01 01:40:18;;;;;;;16.95;7.35;;;12.50;99.90;;;;;;4955285;29;20261;-79
2023/06/01 01:42:44;;;;;;;15.35;6.43;;;12.50;99.90;;;;;;4936351;29;20539;-79
2023/06/01 01:45:10;;;;;;;19.30;7.00;;;12.40;99.90;;;;;;4937646;29;20197;-79
2023/06/01 01:47:47;;;;;;;21.25;7.03;;;12.40;99.90;;;;;;4940262;29;20195;-79
2023/06/01 01:50:15;;;;;;;16.48;6.82;;;12.40;99.90;;;;;;4950458;29;20180;-82
2023/06/01 01:52:43;;;;;;;19.02;6.38;;;12.40;99.90;;;;;;4928262;28;20289;-79
2023/06/01 01:55:10;;;;;;;18.85;6.55;;;12.40;99.90;;;;;;4945426;29;20535;-79
2023/06/01 01:57:37;;;;;;;22.63;7.10;;;12.40;99.90;;;;;;4921842;29;20178;-79
2023/06/01 02:00:05;;;;;;;18.42;6.47;;;12.40;99.90;;;;;;4920148;29;20179;-80
2023/06/01 02:02:39;;;;;;;17.17;6.38;;;12.40;99.90;;;;;;4938898;29;20198;-79
2023/06/01 02:05:05;;;;;;;10.77;5.78;;;12.40;99.90;;;;;;4934678;29;20180;-79
2023/06/01 02:07:34;;;;;;;13.48;5.88;;;12.40;99.90;;;;;;4911921;29;20238;-79
2023/06/01 02:10:02;;;;;;;18.70;5.68;;;12.40;99.90;;;;;;4937828;29;20190;-79
2023/06/01 02:12:28;;;;;;;14.52;5.13;;;12.40;99.90;;;;;;4921375;29;20240;-79
2023/06/01 02:14:54;;;;;;;12.40;4.95;;;12.30;99.90;;;;;;4937498;29;20258;-79
2023/06/01 02:17:21;;;;;;;13.30;4.88;;;12.40;99.90;;;;;;4921285;29;20182;-79
2023/06/01 02:19:47;;;;;;;12.80;5.05;;;12.40;99.90;;;;;;4917762;29;20521;-79
2023/06/01 02:22:13;;;;;;;12.32;4.65;;;12.30;99.90;;;;;;4937164;29;20242;-79
2023/06/01 02:24:39;;;;;;;11.90;4.80;;;12.40;99.90;;;;;;4937106;29;20668;-79
2023/06/01 02:27:06;;;;;;;13.18;4.82;;;12.40;99.90;;;;;;4956820;28;20177;-79
2023/06/01 02:29:33;;;;;;;12.93;4.53;;;12.40;99.90;;;;;;4919862;29;20187;-80
2023/06/01 02:31:58;;;;;;;12.23;4.97;;;12.40;99.90;;;;;;4953606;29;20213;-80
2023/06/01 02:34:25;;;;;;;11.60;4.45;;;12.40;99.90;;;;;;4937083;29;20205;-79
2023/06/01 02:36:50;;;;;;;12.48;4.38;;;12.40;99.90;;;;;;4937209;29;20218;-79
2023/06/01 02:39:17;;;;;;;10.02;4.53;;;12.40;99.90;;;;;;4935185;29;20254;-80
2023/06/01 02:41:43;;;;;;;14.93;4.80;;;12.40;99.90;;;;;;4936519;29;20194;-79
2023/06/01 02:44:09;;;;;;;9.73;4.43;;;12.30;99.90;;;;;;4918838;29;20254;-79
2023/06/01 02:46:35;;;;;;;13.30;4.70;;;12.30;99.90;;;;;;4925223;29;20234;-79
2023/06/01 02:49:01;;;;;;;10.77;4.32;;;12.40;99.90;;;;;;4936414;29;20186;-79
2023/06/01 02:51:27;;;;;;;10.88;4.38;;;12.40;99.90;;;;;;4936676;29;20206;-79
2023/06/01 02:54:04;;;;;;;14.90;4.95;;;12.40;99.90;;;;;;4935756;29;20198;-79
2023/06/01 02:56:30;;;;;;;14.93;5.00;;;12.40;99.90;;;;;;4936772;29;20273;-80
2023/06/01 02:59:05;;;;;;;16.20;4.85;;;12.40;99.90;;;;;;4918638;29;20325;-79
2023/06/01 03:01:35;;;;;;;14.95;5.53;;;12.40;99.90;;;;;;4937272;29;20306;-79
2023/06/01 03:04:07;;;;;;;13.63;5.22;;;12.40;99.90;;;;;;4927904;29;20501;-79
2023/06/01 03:06:37;;;;;;;16.58;5.70;;;12.40;99.90;;;;;;4917578;29;20179;-80
2023/06/01 03:09:12;;;;;;;15.10;5.57;;;12.40;99.90;;;;;;4928685;29;20229;-80
2023/06/01 03:11:53;;;;;;;12.30;5.35;;;12.40;99.90;;;;;;4939237;29;20578;-79
2023/06/01 03:14:20;;;;;;;20.80;6.50;;;12.30;99.90;;;;;;4916768;29;20258;-79
2023/06/01 03:16:47;;;;;;;16.55;5.93;;;12.40;99.90;;;;;;4920734;29;20190;-78
2023/06/01 03:19:16;;;;;;;12.05;5.78;;;12.30;99.90;;;;;;4921225;29;20277;-79
2023/06/01 03:21:44;;;;;;;15.55;6.10;;;12.30;99.90;;;;;;4936243;29;20225;-79
2023/06/01 03:24:11;;;;;;;17.98;5.93;;;12.30;99.90;;;;;;4939729;29;20190;-79
2023/06/01 03:26:37;;;;;;;18.67;6.43;;;12.30;99.90;;;;;;4936277;29;20186;-79
2023/06/01 03:29:04;;;;;;;18.10;6.00;;;12.30;99.90;;;;;;4935869;29;20206;-82
2023/06/01 03:31:34;;;;;;;17.42;6.22;;;12.30;99.90;;;;;;4935828;29;20302;-79
2023/06/01 03:34:01;;;;;;;17.70;6.15;;;12.30;99.90;;;;;;4920082;29;20290;-79
2023/06/01 03:36:27;;;;;;;14.82;6.13;;;12.30;99.90;;;;;;4946643;29;20191;-79
2023/06/01 03:38:54;;;;;;;15.45;6.43;;;12.40;99.90;;;;;;4909845;29;20545;-80
2023/06/01 03:41:22;;;;;;;16.40;6.18;;;12.40;99.90;;;;;;4919344;29;20190;-80
2023/06/01 03:43:48;;;;;;;15.77;6.43;;;12.40;99.90;;;;;;4932916;29;20199;-78
2023/06/01 03:46:14;;;;;;;18.02;6.28;;;12.30;99.90;;;;;;4932537;29;20346;-79
2023/06/01 03:48:40;;;;;;;16.58;6.22;;;12.40;99.90;;;;;;4919013;29;20187;-79
2023/06/01 03:51:07;;;;;;;14.98;6.13;;;12.30;99.90;;;;;;4932285;29;20214;-78
2023/06/01 03:53:34;;;;;;;18.65;6.07;;;12.30;99.90;;;;;;4935377;29;20199;-78
2023/06/01 03:56:00;;;;;;;16.23;5.82;;;12.30;99.90;;;;;;4931177;29;20233;-78
2023/06/01 03:58:36;;;;;;;16.75;6.85;;;12.30;99.90;;;;;;4929408;29;20261;-79
2023/06/01 04:01:03;;;;;;;17.25;6.57;;;12.30;99.90;;;;;;4918488;29;20320;-79
2023/06/01 04:03:29;;;;;;;19.75;6.70;;;12.30;99.90;;;;;;4919187;29;20270;-79
2023/06/01 04:05:59;;;;;;;19.48;6.65;;;12.30;99.90;;;;;;4936787;29;20193;-79
2023/06/01 04:08:29;;;;;;;16.83;6.25;;;12.30;99.90;;;;;;4929581;29;20191;-79
2023/06/01 04:10:55;;;;;;;18.73;5.75;;;12.30;99.90;;;;;;4939479;29;20524;-79
2023/06/01 04:13:21;;;;;;;19.45;6.20;;;12.30;99.90;;;;;;4952078;28;20238;-81
2023/06/01 04:15:47;;;;;;;13.00;6.05;;;12.30;99.90;;;;;;4939322;28;20189;-79
2023/06/01 04:18:17;;;;;;;19.65;6.53;;;12.30;99.90;;;;;;4924319;29;20195;-79
2023/06/01 04:20:55;;;;;;;15.48;6.15;;;12.20;99.90;;;;;;4940300;29;20254;-78
2023/06/01 04:23:22;;;;;;;16.63;5.97;;;12.30;99.90;;;;;;4923739;29;20624;-78
2023/06/01 04:25:50;;;;;;;14.93;6.07;;;12.30;99.90;;;;;;4923925;29;20182;-79
2023/06/01 04:28:18;;;;;;;14.52;6.18;;;12.30;99.90;;;;;;4939452;29;20598;-79
2023/06/01 04:30:47;;;;;;;18.05;6.38;;;12.30;99.90;;;;;;4956715;29;20197;-79
2023/06/01 04:33:13;;;;;;;15.02;6.20;;;12.30;99.90;;;;;;4916311;29;20211;-79
2023/06/01 04:35:39;;;;;;;15.15;5.78;;;12.30;99.90;;;;;;4939814;29;20218;-79
2023/06/01 04:38:06;;;;;;;11.60;4.97;;;12.30;99.90;;;;;;4913333;29;20198;-80
2023/06/01 04:40:33;;;;;;;12.52;5.55;;;12.30;99.90;;;;;;4937553;29;20191;-80
2023/06/01 04:43:02;;;;;;;13.07;5.22;;;12.30;99.90;;;;;;4955074;28;20282;-80
2023/06/01 04:45:30;;;;;;;12.68;4.85;;;12.30;99.90;;;;;;4954629;29;20191;-80
2023/06/01 04:47:59;;;;;;;12.45;5.30;;;12.30;99.90;;;;;;4932471;29;20290;-79
2023/06/01 04:50:36;;;;;;;13.70;4.40;;;12.30;99.90;;;;;;4920140;29;20546;-79
2023/06/01 04:53:03;;;;;;;10.80;4.80;;;12.20;99.90;;;;;;4959522;28;20302;-79
2023/06/01 04:55:30;;;;;;;11.18;4.10;;;12.20;99.90;;;;;;4956012;29;20183;-79
2023/06/01 04:57:56;;;;;;;10.10;4.40;;;12.20;99.90;;;;;;4938229;29;20194;-80
2023/06/01 05:00:22;;;;;;;11.02;4.20;;;12.20;99.90;;;;;;4941173;28;20195;-80
2023/06/01 05:02:49;;;;;;;7.88;4.00;;;12.20;99.90;;;;;;4923232;29;20201;-79
2023/06/01 05:05:16;;;;;;;11.85;4.38;;;12.20;99.90;;;;;;4941249;29;20183;-80
2023/06/01 05:07:43;;;;;;;10.02;4.50;;;12.20;99.90;;;;;;4938310;29;20349;-78
2023/06/01 05:10:12;;;;;;;12.73;5.32;;;12.20;99.90;;;;;;4920409;29;20206;-80
2023/06/01 05:12:44;;;;;;;15.00;5.10;;;12.30;99.90;;;;;;4921402;29;20238;-84
2023/06/01 05:15:11;;;;;;;16.13;4.95;;;12.30;99.90;;;;;;4924626;29;20206;-82
2023/06/01 05:17:38;;;;;;;15.73;5.18;;;12.30;99.90;;;;;;4937806;29;20532;-81
2023/06/01 05:20:09;;;;;;;20.13;5.72;;;12.30;99.90;;;;;;4924140;29;20183;-80
2023/06/01 05:22:35;;;;;;;16.13;5.82;;;12.30;99.90;;;;;;4953531;28;20240;-81
2023/06/01 05:25:02;;;;;;;18.55;5.95;;;12.30;99.90;;;;;;4914588;29;20186;-80
2023/06/01 05:27:29;;;;;;;15.27;6.40;;;12.40;99.90;;;;;;4908606;29;20206;-80
2023/06/01 05:29:55;;;;;;;14.77;6.03;;;12.40;99.90;;;;;;4919960;29;20521;-80
2023/06/01 05:32:21;;;;;;;13.18;6.18;;;12.40;99.90;;;;;;4937946;29;20229;-81
2023/06/01 05:34:47;;;;;;;17.67;6.70;;;12.40;99.90;;;;;;4944304;29;20191;-81
2023/06/01 05:37:14;;;;;;;18.35;5.78;;;12.40;99.90;;;;;;4921238;29;20195;-80
2023/06/01 05:39:40;;;;;;;12.52;5.65;;;12.30;99.90;;;;;;4931347;28;20321;-80
2023/06/01 05:42:06;;;;;;;12.68;5.45;;;12.30;99.90;;;;;;4931593;29;20560;-81
2023/06/01 05:44:37;;;;;;;15.05;5.57;;;12.30;99.90;;;;;;4906199;28;20183;-81
2023/06/01 05:47:03;;;;;;;13.02;6.05;;;12.30;99.90;;;;;;4940751;29;20263;-82
2023/06/01 05:49:31;;;;;;;15.00;5.38;;;12.40;99.90;;;;;;4936725;29;20187;-82
2023/06/01 05:51:58;;;;;;;14.40;5.75;;;12.40;99.90;;;;;;4927091;28;20335;-82
2023/06/01 05:54:25;;;;;;;11.57;4.80;;;12.40;99.90;;;;;;4937585;29;20191;-84
2023/06/01 05:56:51;;;;;;;6.85;4.07;;;12.40;99.90;;;;;;4942339;28;20726;-81
2023/06/01 05:59:17;;;;;;;11.88;4.82;;;12.40;99.90;;;;;;4931786;29;20187;-84
2023/06/01 06:01:44;;;;;;;14.77;4.93;;;12.40;99.90;;;;;;4921756;29;20281;-81
2023/06/01 06:04:10;;;;;;;11.27;4.53;;;12.40;99.90;;;;;;4922300;29;20197;-81
2023/06/01 06:06:36;;;;;;;8.93;5.00;;;12.50;99.90;;;;;;4938312;29;20197;-80
2023/06/01 06:09:04;;;;;;;8.95;4.95;;;12.50;99.90;;;;;;4952544;29;20234;-80
2023/06/01 06:11:30;;;;;;;14.85;5.35;;;12.50;99.90;;;;;;4935495;29;20206;-80
2023/06/01 06:13:56;;;;;;;11.98;5.20;;;12.50;99.90;;;;;;4954021;29;20685;-81
2023/06/01 06:16:21;;;;;;;13.00;5.10;;;12.50;99.90;;;;;;4934370;29;20193;-82
2023/06/01 06:18:47;;;;;;;11.63;4.97;;;12.50;99.90;;;;;;4941656;28;20197;-81
2023/06/01 06:21:13;;;;;;;9.93;4.18;;;12.50;99.90;;;;;;4938266;29;20207;-83
2023/06/01 06:23:39;;;;;;;9.20;3.97;;;12.60;99.90;;;;;;4954316;29;20277;-82
2023/06/01 06:26:06;;;;;;;6.60;3.22;;;12.60;99.90;;;;;;4936748;29;20770;-82
2023/06/01 06:28:32;;;;;;;6.25;3.00;;;12.60;99.90;;;;;;4936682;29;20214;-81
2023/06/01 06:30:58;;;;;;;6.57;2.78;;;12.50;99.90;;;;;;4921502;29;20179;-82
2023/06/01 06:33:24;;;;;;;8.30;2.85;;;12.60;99.90;;;;;;4938112;29;20249;-81
2023/06/01 06:35:50;;;;;;;8.20;3.20;;;12.50;99.90;;;;;;4954825;29;20206;-82
2023/06/01 06:38:16;;;;;;;6.20;2.67;;;12.60;99.90;;;;;;4942604;29;20182;-82
2023/06/01 06:40:42;;;;;;;6.88;2.58;;;12.60;99.90;;;;;;4924952;29;20637;-82
2023/06/01 06:43:08;;;;;;;5.43;2.72;;;12.60;99.90;;;;;;4919808;29;20219;-83
2023/06/01 06:45:34;;;;;;;8.27;2.92;;;12.60;99.90;;;;;;4938079;29;20206;-81
2023/06/01 06:48:00;;;;;;;7.70;3.20;;;12.70;99.90;;;;;;4936844;29;20214;-81
2023/06/01 06:50:26;;;;;;;9.60;3.17;;;12.70;99.90;;;;;;4938727;28;20565;-81
2023/06/01 06:52:52;;;;;;;7.95;3.38;;;12.70;99.90;;;;;;4939395;29;20234;-82
2023/06/01 06:55:18;;;;;;;6.70;3.28;;;12.70;99.90;;;;;;4936240;29;20206;-82
2023/06/01 06:57:44;;;;;;;7.43;3.20;;;12.70;99.90;;;;;;4925354;29;20274;-81
2023/06/01 07:00:14;;;;;;;6.10;3.42;;;12.70;99.90;;;;;;4955405;28;20575;-81
2023/06/01 07:02:41;;;;;;;8.55;3.65;;;12.70;99.90;;;;;;4918141;29;20218;-82
2023/06/01 07:05:08;;;;;;;7.82;3.80;;;12.70;99.90;;;;;;4921069;29;20202;-81
2023/06/01 07:07:34;;;;;;;6.10;3.47;;;12.80;99.90;;;;;;4931846;29;20224;-81
2023/06/01 07:10:00;;;;;;;6.18;3.60;;;12.80;99.90;;;;;;4948985;29;20239;-82
2023/06/01 07:12:26;;;;;;;9.70;3.80;;;12.80;99.90;;;;;;4936634;29;20222;-83
2023/06/01 07:14:51;;;;;;;12.77;3.92;;;12.80;99.90;;;;;;4955067;29;20193;-83
2023/06/01 07:17:17;;;;;;;10.40;4.28;;;12.80;99.90;;;;;;4960968;28;20213;-82
2023/06/01 07:19:43;;;;;;;9.38;4.30;;;12.80;99.90;;;;;;4938189;29;20194;-85
2023/06/01 07:22:09;;;;;;;11.98;4.40;;;12.80;99.90;;;;;;4937561;29;20372;-81
2023/06/01 07:24:35;;;;;;;10.27;4.28;;;12.70;99.90;;;;;;4937348;29;20182;-83
2023/06/01 07:27:01;;;;;;;6.57;3.95;;;12.80;99.90;;;;;;4938559;29;20181;-80
2023/06/01 07:29:27;;;;;;;11.88;3.67;;;12.80;99.90;;;;;;4937945;29;20546;-81
2023/06/01 07:31:53;;;;;;;10.80;4.25;;;12.80;99.90;;;;;;4954018;29;20265;-81
2023/06/01 07:34:19;;;;;;;6.15;3.45;;;12.80;99.90;;;;;;4955143;29;20492;-81
2023/06/01 07:36:48;;;;;;;9.07;3.35;;;12.90;99.90;;;;;;4961488;28;20190;-81
2023/06/01 07:39:14;;;;;;;6.40;3.53;;;12.90;99.90;;;;;;4940623;28;20260;-82
2023/06/01 07:41:41;;;;;;;10.55;3.75;;;12.90;99.90;;;;;;4950032;28;20209;-81
2023/06/01 07:44:07;;;;;;;10.02;4.10;;;12.90;99.90;;;;;;4937511;28;20285;-81
2023/06/01 07:46:33;;;;;;;10.02;3.83;;;12.90;99.90;;;;;;4953145;29;20283;-81
2023/06/01 07:48:59;;;;;;;7.85;4.28;;;13.00;99.90;;;;;;4923869;29;20210;-81
2023/06/01 07:51:25;;;;;;;10.63;4.05;;;13.00;99.90;;;;;;4938894;29;20664;-81
2023/06/01 07:53:51;;;;;;;9.27;3.90;;;13.00;99.90;;;;;;4922630;29;20237;-81
2023/06/01 07:56:17;;;;;;;6.18;3.35;;;13.00;99.90;;;;;;4938166;29;20253;-81
2023/06/01 07:58:44;;;;;;;8.80;2.90;;;13.00;99.90;;;;;;4955499;29;20179;-80
2023/06/01 08:01:10;;;;;;;10.82;3.17;;;13.00;99.90;;;;;;4939096;28;20186;-81
2023/06/01 08:03:36;;;;;;;8.95;3.00;;;13.00;99.90;;;;;;4938029;28;20205;-80
2023/06/01 08:06:04;;;;;;;7.65;2.50;;;13.00;99.90;;;;;;4939249;29;20285;-81
2023/06/01 08:08:31;;;;;;;4.72;2.50;;;13.00;99.90;;;;;;4938652;29;20198;-80
2023/06/01 08:10:57;;;;;;;5.43;2.65;;;13.00;99.90;;;;;;4954908;29;20182;-84
2023/06/01 08:13:25;;;;;;;3.40;2.33;;;13.00;99.90;;;;;;4966304;28;20245;-80
2023/06/01 08:15:52;;;;;;;4.03;2.40;;;13.00;99.90;;;;;;4950424;29;20206;-80
2023/06/01 08:18:22;;;;;;;6.38;2.70;;;13.10;99.90;;;;;;4923227;29;20198;-80
2023/06/01 08:20:48;;;;;;;10.77;3.47;;;13.10;99.90;;;;;;4938699;29;20270;-81
2023/06/01 08:23:16;;;;;;;6.80;3.35;;;13.10;99.90;;;;;;4921595;29;20645;-81
2023/06/01 08:25:44;;;;;;;12.65;4.15;;;13.10;99.90;;;;;;4971226;28;20182;-81
2023/06/01 08:28:10;;;;;;;10.40;4.03;;;13.10;99.90;;;;;;4956242;28;20353;-82
2023/06/01 08:30:36;;;;;;;10.85;4.00;;;13.00;99.90;;;;;;4938469;29;20190;-81
2023/06/01 08:33:02;;;;;;;13.73;4.30;;;13.10;99.90;;;;;;4932246;29;20251;-81
2023/06/01 08:35:30;;;;;;;12.30;4.60;;;13.10;99.90;;;;;;4939715;29;20196;-80
2023/06/01 08:37:56;;;;;;;14.27;4.85;;;13.10;99.90;;;;;;4954822;29;20214;-80
2023/06/01 08:40:22;;;;;;;14.95;5.07;;;13.00;99.90;;;;;;4939273;29;20645;-85
2023/06/01 08:43:02;;;;;;;14.90;5.35;;;13.10;99.90;;;;;;4944590;29;20183;-81
2023/06/01 08:45:29;;;;;;;18.52;5.15;;;13.10;99.90;;;;;;4953977;29;20277;-80
2023/06/01 08:47:57;;;;;;;17.67;5.45;;;13.00;99.90;;;;;;4953774;29;20190;-80
2023/06/01 08:50:25;;;;;;;21.17;5.82;;;13.10;99.90;;;;;;4953182;29;20183;-80
2023/06/01 08:52:55;;;;;;;17.45;5.63;;;13.10;99.90;;;;;;4955750;28;20218;-80
2023/06/01 08:55:21;;;;;;;22.42;6.32;;;13.00;99.90;;;;;;4941827;29;20253;-80
2023/06/01 08:57:47;;;;;;;17.17;6.18;;;13.00;99.90;;;;;;4959426;29;20206;-79
2023/06/01 09:00:14;;;;;;;15.27;5.65;;;13.00;99.90;;;;;;4958573;29;20649;-81
2023/06/01 09:02:42;;;;;;;16.40;4.97;;;13.00;99.90;;;;;;4909398;29;20650;-80
2023/06/01 09:05:09;;;;;;;15.07;4.32;;;13.10;99.90;;;;;;4925092;29;20261;-80
2023/06/01 09:07:35;;;;;;;11.18;3.75;;;13.10;99.90;;;;;;4942054;29;20176;-80
2023/06/01 09:10:01;;;;;;;15.60;4.65;;;13.10;99.90;;;;;;4937765;29;20190;-80
2023/06/01 09:12:31;;;;;;;14.32;3.70;;;13.10;99.90;;;;;;4927663;29;20362;-81
2023/06/01 09:15:09;;;;;;;13.85;3.90;;;13.10;99.90;;;;;;4956906;29;20179;-80
2023/06/01 09:17:36;;;;;;;9.63;3.58;;;13.10;99.90;;;;;;4938839;29;20613;-81
2023/06/01 09:20:03;;;;;;;11.15;3.67;;;13.10;99.90;;;;;;4956043;29;20178;-81
2023/06/01 09:22:47;;;;;;;14.25;3.80;;;13.10;99.90;;;;;;4955977;29;20183;-81
2023/06/01 09:25:14;;;;;;;12.75;3.60;;;13.20;99.90;;;;;;4956252;29;20552;-80
2023/06/01 09:27:49;;;;;;;11.32;3.90;;;13.20;99.90;;;;;;4955882;29;20198;-81
2023/06/01 09:30:16;;;;;;;12.35;3.70;;;13.30;99.90;;;;;;4949868;28;20213;-81
2023/06/01 09:32:44;;;;;;;10.63;3.92;;;13.30;99.90;;;;;;4949464;28;20224;-81
2023/06/01 09:35:10;;;;;;;11.57;3.70;;;13.30;99.90;;;;;;4975569;28;20298;-81
2023/06/01 09:37:38;;;;;;;18.80;3.65;;;13.30;99.90;;;;;;4940667;29;20211;-80
2023/06/01 09:40:24;;;;;;;17.77;3.75;;;13.30;99.90;;;;;;4935543;29;20187;-80
2023/06/01 09:42:50;;;;;;;12.07;4.13;;;13.40;99.90;;;;;;4920206;29;20716;-81
2023/06/01 09:45:20;;;;;;;15.70;3.90;;;13.40;99.90;;;;;;4949018;28;20204;-80
2023/06/01 09:47:47;;;;;;;11.85;3.83;;;13.40;99.90;;;;;;4942534;28;20270;-80
2023/06/01 09:50:33;;;;;;;17.15;4.10;;;13.40;99.90;;;;;;4938965;28;20182;-80
2023/06/01 09:52:59;;;;;;;13.32;3.95;;;13.40;99.90;;;;;;4937860;29;20230;-80
2023/06/01 09:55:25;;;;;;;16.35;3.90;;;13.40;99.90;;;;;;4954615;29;20193;-81
2023/06/01 09:57:51;;;;;;;11.70;3.22;;;13.50;99.90;;;;;;4938653;29;20204;-80
2023/06/01 10:00:26;;;;;;;10.52;3.55;;;13.50;99.90;;;;;;4922793;29;20590;-81
2023/06/01 10:02:53;;;;;;;11.48;3.65;;;13.50;99.90;;;;;;4919253;29;20213;-81
2023/06/01 10:05:20;;;;;;;13.20;4.10;;;13.50;99.90;;;;;;4919511;29;20662;-81
2023/06/01 10:07:47;;;;;;;11.80;3.20;;;13.50;99.90;;;;;;4919121;29;20262;-81
2023/06/01 10:10:15;;;;;;;9.45;3.40;;;13.60;99.90;;;;;;4952698;29;20191;-80
2023/06/01 10:12:43;;;;;;;12.15;3.63;;;13.60;99.90;;;;;;4955575;29;20238;-80
2023/06/01 10:15:11;;;;;;;15.40;3.90;;;13.70;99.90;;;;;;4956597;29;20246;-81
2023/06/01 10:17:42;;;;;;;12.43;3.67;;;13.80;99.90;;;;;;4956966;29;20633;-80
2023/06/01 10:20:11;;;;;;;12.82;3.60;;;13.80;99.90;;;;;;4958113;29;20208;-81
2023/06/01 10:22:41;;;;;;;13.95;4.30;;;13.80;99.90;;;;;;4938568;29;20509;-80
2023/06/01 10:25:10;;;;;;;13.88;4.07;;;13.80;99.90;;;;;;4955875;29;20171;-80
2023/06/01 10:27:41;;;;;;;16.90;4.35;;;13.90;99.90;;;;;;4948878;29;20194;-80
2023/06/01 10:30:11;;;;;;;14.07;3.92;;;13.90;99.90;;;;;;4938151;29;20174;-81
2023/06/01 10:32:40;;;;;;;13.55;3.97;;;13.90;99.90;;;;;;4957820;28;20229;-81
2023/06/01 10:35:07;;;;;;;12.60;3.75;;;13.90;99.90;;;;;;4956996;28;20197;-80
2023/06/01 10:37:34;;;;;;;12.15;4.20;;;13.90;99.90;;;;;;4957245;28;20630;-80
2023/06/01 10:40:58;;;;;;;8.65;3.08;;;14.00;99.90;;;;;;4957086;28;20205;-82
2023/06/01 10:43:36;;;;;;;11.93;3.78;;;14.00;99.90;;;;;;4939075;28;20194;-80
2023/06/01 10:46:02;;;;;;;13.57;3.55;;;14.10;99.90;;;;;;4956529;28;20546;-81
2023/06/01 10:48:51;;;;;;;12.02;3.67;;;14.10;99.90;;;;;;4957061;28;20190;-80
2023/06/01 10:51:19;;;;;;;14.27;3.67;;;14.20;99.90;;;;;;4940637;28;20555;-81
2023/06/01 10:53:45;;;;;;;16.20;3.72;;;14.20;99.90;;;;;;4949354;29;20286;-81
2023/06/01 10:56:24;;;;;;;16.92;3.70;;;14.20;99.90;;;;;;4937205;29;20321;-82
2023/06/01 10:59:08;;;;;;;14.52;3.70;;;14.20;99.90;;;;;;4937205;29;20190;-81
2023/06/01 11:01:40;;;;;;;11.43;3.78;;;14.20;99.90;;;;;;4954843;29;20196;-81
2023/06/01 11:04:07;;;;;;;16.45;3.42;;;14.20;99.90;;;;;;4955005;29;20258;-81
2023/06/01 11:06:37;;;;;;;10.60;3.08;;;14.30;99.90;;;;;;4954957;29;20178;-81
2023/06/01 11:09:08;;;;;;;11.15;3.10;;;14.30;99.90;;;;;;4969528;28;20486;-82
2023/06/01 11:11:55;;;;;;;10.48;3.10;;;14.40;99.90;;;;;;4969332;28;20675;-81
2023/06/01 11:14:23;;;;;;;8.88;3.42;;;14.40;99.90;;;;;;4954922;28;20328;-81
2023/06/01 11:16:53;;;;;;;9.95;3.20;;;14.40;99.90;;;;;;4936848;29;20322;-81
2023/06/01 11:19:26;;;;;;;10.07;3.20;;;14.40;99.90;;;;;;4937721;29;20266;-81
2023/06/01 11:22:04;;;;;;;15.60;3.13;;;14.50;99.90;;;;;;4937928;29;20218;-81
2023/06/01 11:24:35;;;;;;;10.63;3.30;;;14.50;99.90;;;;;;4954463;29;20201;-82
2023/06/01 11:27:10;;;;;;;10.25;3.47;;;14.50;99.90;;;;;;4947808;28;20189;-81
2023/06/01 11:29:37;;;;;;;9.45;2.92;;;14.60;99.90;;;;;;4973983;28;20228;-81
2023/06/01 11:32:07;;;;;;;8.73;3.65;;;14.60;99.90;;;;;;4959503;28;20328;-81
2023/06/01 11:34:41;;;;;;;11.15;3.30;;;14.60;99.90;;;;;;4929266;29;20179;-83
2023/06/01 11:37:14;;;;;;;13.13;3.50;;;14.70;99.90;;;;;;4938056;29;20175;-81
2023/06/01 11:39:40;;;;;;;17.00;4.00;;;14.70;99.90;;;;;;4937258;29;20182;-81
2023/06/01 11:42:13;;;;;;;10.30;3.70;;;14.70;99.90;;;;;;4922632;29;20637;-81
2023/06/01 11:44:41;;;;;;;15.65;4.97;;;14.70;99.90;;;;;;4923259;29;20237;-81
2023/06/01 11:47:08;;;;;;;12.68;4.80;;;14.70;99.90;;;;;;4938458;29;20281;-81
2023/06/01 11:49:47;;;;;;;14.23;4.20;;;14.70;99.90;;;;;;4906663;29;20187;-81
2023/06/01 11:52:13;;;;;;;16.42;4.40;;;14.60;99.90;;;;;;4937621;29;20715;-81
2023/06/01 11:54:39;;;;;;;13.52;4.00;;;14.60;99.90;;;;;;4954424;29;20170;-81
2023/06/01 11:57:06;;;;;;;15.07;4.00;;;14.60;99.90;;;;;;4937126;29;20641;-81
2023/06/01 11:59:42;;;;;;;14.30;4.40;;;14.50;99.90;;;;;;4937209;29;20265;-82
2023/06/01 12:02:27;;;;;;;11.10;3.97;;;14.50;99.90;;;;;;4937360;29;20687;-81
2023/06/01 12:05:09;;;;;;;12.07;3.78;;;14.40;99.90;;;;;;4963877;28;20186;-82
2023/06/01 12:07:52;;;;;;;10.23;3.83;;;14.40;99.90;;;;;;4940639;28;20192;-82
2023/06/01 12:10:19;;;;;;;12.77;3.90;;;14.40;99.90;;;;;;4956066;28;20185;-82
2023/06/01 12:12:46;;;;;;;9.00;3.80;;;14.50;99.90;;;;;;4973915;28;20675;-82
2023/06/01 12:15:17;;;;;;;11.13;4.38;;;14.50;99.90;;;;;;4944103;29;20202;-81
2023/06/01 12:17:53;;;;;;;9.13;3.92;;;14.50;99.90;;;;;;4920881;29;20179;-81
2023/06/01 12:20:30;;;;;;;11.50;3.85;;;14.50;99.90;;;;;;4920947;29;20607;-82
2023/06/01 12:22:57;;;;;;;9.43;4.35;;;14.50;99.90;;;;;;4921463;29;20189;-81
2023/06/01 12:25:23;;;;;;;14.60;4.28;;;14.50;99.90;;;;;;4936689;29;20183;-81
2023/06/01 12:28:06;;;;;;;11.18;4.18;;;14.50;99.90;;;;;;4940161;29;20187;-82
2023/06/01 12:30:32;;;;;;;15.15;5.18;;;14.50;99.90;;;;;;4940657;29;20186;-81
2023/06/01 12:32:58;;;;;;;15.10;4.70;;;14.50;99.90;;;;;;4957728;29;20605;-82
2023/06/01 12:35:24;;;;;;;12.05;5.05;;;14.40;99.90;;;;;;4970691;28;20204;-81
2023/06/01 12:38:08;;;;;;;12.70;4.47;;;14.40;99.90;;;;;;4949529;29;20524;-85
2023/06/01 12:40:35;;;;;;;13.50;4.38;;;14.40;99.90;;;;;;4954729;28;20182;-83
2023/06/01 12:43:00;;;;;;;13.38;4.13;;;14.40;99.90;;;;;;4960337;28;20277;-82
2023/06/01 12:45:38;;;;;;;14.32;4.90;;;14.30;99.90;;;;;;4927901;29;20214;-82
2023/06/01 12:48:04;;;;;;;12.50;4.88;;;14.20;99.90;;;;;;4922674;29;20183;-81